createdAt,value
2019-05-07T00:00:13.403Z,70.07
2019-05-07T00:03:22.110Z,70.20
2019-05-07T00:06:32.562Z,69.91
2019-05-07T00:09:43.015Z,70.26
2019-05-07T00:13:02.507Z,69.97
2019-05-07T00:16:12.797Z,69.48
2019-05-07T00:19:23.099Z,69.89
2019-05-07T00:22:32.665Z,69.58
2019-05-07T00:25:52.947Z,69.35
2019-05-07T00:29:02.266Z,69.63
2019-05-07T00:32:22.322Z,69.26
2019-05-07T00:35:35.040Z,69.33
2019-05-07T00:39:34.431Z,69.12
2019-05-07T00:43:02.673Z,69.12
2019-05-07T00:46:22.499Z,69.38
2019-05-07T00:49:42.558Z,69.56
2019-05-07T00:53:05.294Z,69.91
2019-05-07T00:56:13.911Z,70.32
2019-05-07T00:59:24.018Z,70.16
2019-05-07T01:02:32.651Z,70.25
2019-05-07T01:05:43.203Z,70.60
2019-05-07T01:08:52.561Z,70.75
2019-05-07T01:12:03.159Z,70.79
2019-05-07T01:15:12.857Z,70.80
2019-05-07T01:18:23.310Z,71.16
2019-05-07T01:21:32.633Z,71.17
2019-05-07T01:24:52.814Z,71.08
2019-05-07T01:28:02.602Z,70.90
2019-05-07T01:31:12.556Z,71.10
2019-05-07T01:34:32.132Z,71.25
2019-05-07T01:37:42.190Z,71.48
2019-05-07T01:41:02.713Z,71.75
2019-05-07T01:44:12.825Z,71.77
2019-05-07T01:47:23.624Z,71.76
2019-05-07T01:50:32.326Z,71.53
2019-05-07T01:53:42.973Z,71.75
2019-05-07T01:57:02.898Z,71.99
2019-05-07T02:00:13.084Z,71.97
2019-05-07T02:03:32.788Z,71.42
2019-05-07T02:06:59.213Z,71.47
2019-05-07T02:10:22.740Z,71.70
2019-05-07T02:13:33.732Z,71.42
2019-05-07T02:16:41.985Z,71.53
2019-05-07T02:19:52.616Z,71.49
2019-05-07T02:23:02.823Z,71.31
2019-05-07T02:26:13.325Z,71.42
2019-05-07T02:29:22.788Z,71.84
2019-05-07T02:32:43.183Z,71.99
2019-05-07T02:35:53.422Z,71.82
2019-05-07T02:39:18.094Z,71.73
2019-05-07T02:42:26.874Z,72.05
2019-05-07T02:46:20.572Z,72.12
2019-05-07T02:49:45.631Z,72.19
2019-05-07T02:52:59.777Z,71.78
2019-05-07T02:56:26.547Z,72.76
2019-05-07T02:59:35.212Z,73.04
2019-05-07T03:02:43.946Z,73.22
2019-05-07T03:05:53.796Z,73.72
2019-05-07T03:09:03.253Z,73.35
2019-05-07T03:12:13.123Z,74.07
2019-05-07T03:15:24.253Z,74.24
2019-05-07T03:18:33.468Z,74.38
2019-05-07T03:21:55.372Z,74.25
2019-05-07T03:25:10.231Z,74.53
2019-05-07T03:28:53.622Z,74.77
2019-05-07T03:32:37.809Z,74.79
2019-05-07T03:35:48.958Z,75.01
2019-05-07T03:38:57.624Z,74.85
2019-05-07T03:42:06.273Z,75.15
2019-05-07T03:45:35.074Z,75.16
2019-05-07T03:49:04.770Z,75.61
2019-05-07T03:52:14.606Z,75.75
2019-05-07T03:55:23.504Z,75.73
2019-05-07T03:58:34.002Z,75.45
2019-05-07T04:01:46.677Z,75.24
2019-05-07T04:05:06.137Z,75.45
2019-05-07T04:08:24.921Z,75.39
2019-05-07T04:11:33.842Z,75.22
2019-05-07T04:14:53.591Z,75.25
2019-05-07T04:18:03.626Z,75.14
2019-05-07T04:21:13.972Z,74.90
2019-05-07T04:24:42.905Z,74.77
2019-05-07T04:28:06.736Z,75.08
2019-05-07T04:31:15.237Z,75.09
2019-05-07T04:34:44.517Z,74.83
2019-05-07T04:37:53.495Z,74.67
2019-05-07T04:41:03.774Z,74.86
2019-05-07T04:44:14.401Z,75.02
2019-05-07T04:47:38.687Z,74.32
2019-05-07T04:50:42.981Z,73.98
2019-05-07T04:53:46.683Z,74.17
2019-05-07T04:56:55.286Z,74.09
2019-05-07T05:00:05.269Z,73.53
2019-05-07T05:03:23.823Z,73.09
2019-05-07T05:06:42.835Z,72.46
2019-05-07T05:09:53.166Z,72.62
2019-05-07T05:13:13.087Z,72.98
2019-05-07T05:16:25.996Z,72.56
2019-05-07T05:19:34.693Z,72.01
2019-05-07T05:22:53.210Z,71.25
2019-05-07T05:26:02.012Z,70.49
2019-05-07T05:29:12.103Z,70.24
2019-05-07T05:32:22.693Z,68.55
2019-05-07T05:35:32.080Z,67.98
2019-05-07T05:38:42.330Z,65.00
2019-05-07T05:42:09.286Z,64.06
2019-05-07T05:45:34.236Z,63.41
2019-05-07T05:48:43.127Z,63.27
2019-05-07T05:52:12.472Z,59.99
2019-05-07T05:55:22.674Z,57.72
2019-05-07T05:58:56.274Z,56.85
2019-05-07T06:02:23.265Z,56.62
2019-05-07T06:05:55.017Z,55.81
2019-05-07T06:09:21.906Z,55.19
2019-05-07T06:13:07.985Z,54.14
2019-05-07T06:16:21.946Z,52.79
2019-05-07T06:19:36.416Z,52.43
2019-05-07T06:23:35.736Z,50.94
2019-05-07T06:27:02.963Z,51.16
2019-05-07T06:30:12.861Z,50.91
2019-05-07T06:33:22.928Z,51.56
2019-05-07T06:36:33.468Z,51.11
2019-05-07T06:39:52.961Z,51.01
2019-05-07T06:43:21.841Z,51.92
2019-05-07T06:46:48.850Z,52.73
2019-05-07T06:49:58.232Z,53.52
2019-05-07T06:53:05.340Z,55.12
2019-05-07T06:56:24.175Z,53.65
2019-05-07T06:59:42.195Z,53.57
2019-05-07T07:03:17.867Z,54.22
2019-05-07T07:06:29.433Z,55.72
2019-05-07T07:09:53.909Z,55.05
2019-05-07T07:13:02.389Z,53.20
2019-05-07T07:16:12.702Z,52.14
2019-05-07T07:19:32.540Z,51.91
2019-05-07T07:22:42.584Z,50.77
2019-05-07T07:25:52.261Z,50.02
2019-05-07T07:29:02.033Z,51.22
2019-05-07T07:32:12.743Z,49.77
2019-05-07T07:35:22.538Z,48.92
2019-05-07T07:38:35.590Z,49.25
2019-05-07T07:41:48.145Z,49.15
2019-05-07T07:45:49.032Z,46.75
2019-05-07T07:49:07.810Z,46.25
2019-05-07T07:52:06.422Z,47.45
2019-05-07T07:55:17.786Z,47.55
2019-05-07T07:58:48.229Z,46.16
2019-05-07T08:02:05.685Z,45.98
2019-05-07T08:05:33.749Z,46.59
2019-05-07T08:08:42.538Z,46.18
2019-05-07T08:11:52.689Z,47.80
2019-05-07T08:15:14.767Z,45.88
2019-05-07T08:18:13.403Z,45.81
2019-05-07T08:21:22.896Z,44.70
2019-05-07T08:24:42.645Z,45.84
2019-05-07T08:27:53.083Z,45.38
2019-05-07T08:31:19.199Z,43.56
2019-05-07T08:34:42.873Z,42.92
2019-05-07T08:37:51.856Z,40.07
2019-05-07T08:41:02.327Z,41.12
2019-05-07T08:44:15.790Z,40.73
2019-05-07T08:47:34.527Z,41.76
2019-05-07T08:50:43.089Z,41.25
2019-05-07T08:54:05.664Z,41.16
2019-05-07T08:57:24.693Z,41.72
2019-05-07T09:00:33.195Z,41.33
2019-05-07T09:03:44.744Z,41.19
2019-05-07T09:06:53.279Z,42.40
2019-05-07T09:10:02.438Z,42.57
2019-05-07T09:13:12.572Z,42.06
2019-05-07T09:16:23.260Z,42.71
2019-05-07T09:19:32.394Z,40.09
2019-05-07T09:22:42.698Z,41.45
2019-05-07T09:25:52.246Z,40.42
2019-05-07T09:29:19.473Z,41.67
2019-05-07T09:32:37.154Z,41.97
2019-05-07T09:36:07.086Z,40.99
2019-05-07T09:39:32.312Z,40.04
2019-05-07T09:42:42.196Z,40.50
2019-05-07T09:45:52.323Z,41.24
2019-05-07T09:49:02.941Z,39.85
2019-05-07T09:52:12.301Z,38.08
2019-05-07T09:55:23.178Z,38.39
2019-05-07T09:58:36.562Z,38.12
2019-05-07T10:01:42.006Z,37.90
2019-05-07T10:04:52.651Z,36.48
2019-05-07T10:08:01.804Z,36.92
2019-05-07T10:11:12.335Z,37.46
2019-05-07T10:14:22.407Z,33.79
2019-05-07T10:17:45.880Z,32.66
2019-05-07T10:20:54.548Z,34.06
2019-05-07T10:24:03.172Z,34.38
2019-05-07T10:27:12.801Z,33.68
2019-05-07T10:30:21.965Z,30.54
2019-05-07T10:33:32.207Z,32.03
2019-05-07T10:36:52.311Z,32.68
2019-05-07T10:40:03.006Z,31.73
2019-05-07T10:43:11.659Z,33.83
2019-05-07T10:46:28.053Z,33.36
2019-05-07T10:49:42.828Z,34.85
2019-05-07T10:52:52.843Z,35.34
2019-05-07T10:56:02.517Z,38.71
2019-05-07T10:59:12.229Z,41.09
2019-05-07T11:02:26.226Z,40.52
2019-05-07T11:05:34.753Z,39.68
2019-05-07T11:08:44.597Z,36.88
2019-05-07T11:11:53.193Z,36.33
2019-05-07T11:15:02.259Z,35.86
2019-05-07T11:18:26.076Z,36.42
2019-05-07T11:21:34.637Z,36.07
2019-05-07T11:24:42.767Z,35.47
2019-05-07T11:27:52.387Z,34.35
2019-05-07T11:31:02.089Z,32.49
2019-05-07T11:34:11.916Z,32.28
2019-05-07T11:37:22.566Z,31.84
2019-05-07T11:40:34.588Z,32.78
2019-05-07T11:44:02.643Z,35.56
2019-05-07T11:47:29.297Z,38.18
2019-05-07T11:51:01.409Z,38.48
2019-05-07T11:54:12.383Z,39.19
2019-05-07T11:57:22.080Z,39.39
2019-05-07T12:00:57.430Z,38.00
2019-05-07T12:04:06.234Z,37.76
2019-05-07T12:07:14.780Z,34.69
2019-05-07T12:10:23.546Z,34.61
2019-05-07T12:13:32.448Z,32.91
2019-05-07T12:16:42.661Z,31.37
2019-05-07T12:19:52.654Z,32.14
2019-05-07T12:23:02.857Z,32.32
2019-05-07T12:26:12.765Z,30.35
2019-05-07T12:29:32.368Z,31.27
2019-05-07T12:32:49.096Z,30.21
2019-05-07T12:36:22.786Z,28.52
2019-05-07T12:39:31.959Z,27.94
2019-05-07T12:42:42.419Z,26.53
2019-05-07T12:45:52.418Z,25.36
2019-05-07T12:49:03.162Z,24.61
2019-05-07T12:52:27.051Z,24.26
2019-05-07T12:55:56.799Z,24.21
2019-05-07T12:59:05.894Z,23.40
2019-05-07T13:02:42.057Z,22.26
2019-05-07T13:05:52.117Z,21.94
2019-05-07T13:09:00.264Z,22.51
2019-05-07T13:12:19.214Z,24.34
2019-05-07T13:15:28.433Z,24.66
2019-05-07T13:18:47.288Z,26.76
2019-05-07T13:21:56.085Z,26.75
2019-05-07T13:25:03.240Z,27.83
2019-05-07T13:28:11.947Z,29.13
2019-05-07T13:31:22.857Z,29.76
2019-05-07T13:34:42.694Z,30.91
2019-05-07T13:38:11.827Z,33.39
2019-05-07T13:41:40.207Z,33.45
2019-05-07T13:44:56.751Z,34.32
2019-05-07T13:48:23.770Z,34.05
2019-05-07T13:51:33.886Z,34.75
2019-05-07T13:54:42.619Z,35.08
2019-05-07T13:57:52.412Z,36.20
2019-05-07T14:01:39.290Z,36.95
2019-05-07T14:05:04.959Z,37.47
2019-05-07T14:08:14.213Z,37.59
2019-05-07T14:11:23.055Z,37.24
2019-05-07T14:14:34.524Z,36.11
2019-05-07T14:17:42.132Z,37.16
2019-05-07T14:20:50.781Z,36.66
2019-05-07T14:23:59.402Z,36.73
2019-05-07T14:27:08.191Z,36.06
2019-05-07T14:30:17.331Z,36.19
2019-05-07T14:33:43.922Z,37.02
2019-05-07T14:37:01.946Z,37.05
2019-05-07T14:40:12.895Z,37.60
2019-05-07T14:43:43.631Z,37.99
2019-05-07T14:47:14.849Z,37.09
2019-05-07T14:50:23.521Z,37.41
2019-05-07T14:53:32.894Z,37.94
2019-05-07T14:56:51.896Z,36.83
2019-05-07T15:00:03.263Z,37.26
2019-05-07T15:03:12.629Z,37.78
2019-05-07T15:06:21.970Z,38.74
2019-05-07T15:09:32.107Z,38.28
2019-05-07T15:12:52.194Z,37.50
2019-05-07T15:16:03.119Z,36.94
2019-05-07T15:19:12.451Z,37.04
2019-05-07T15:22:26.718Z,38.09
2019-05-07T15:25:35.381Z,38.83
2019-05-07T15:28:46.066Z,37.73
2019-05-07T15:31:59.527Z,37.47
2019-05-07T15:35:09.481Z,35.57
2019-05-07T15:38:18.205Z,34.73
2019-05-07T15:41:26.891Z,35.53
2019-05-07T15:44:35.643Z,36.93
2019-05-07T15:47:47.858Z,35.61
2019-05-07T15:50:56.506Z,35.84
2019-05-07T15:54:05.329Z,37.13
2019-05-07T15:57:17.038Z,36.67
2019-05-07T16:00:37.596Z,37.54
2019-05-07T16:03:46.778Z,38.59
2019-05-07T16:06:55.874Z,37.44
2019-05-07T16:10:04.511Z,37.52
2019-05-07T16:13:15.576Z,37.46
2019-05-07T16:16:24.116Z,37.95
2019-05-07T16:19:32.783Z,37.67
2019-05-07T16:22:44.791Z,36.97
2019-05-07T16:25:55.198Z,36.74
2019-05-07T16:29:04.617Z,37.50
2019-05-07T16:32:13.614Z,37.67
2019-05-07T16:35:22.821Z,37.99
2019-05-07T16:38:32.751Z,38.37
2019-05-07T16:41:42.341Z,38.42
2019-05-07T16:44:52.189Z,38.55
2019-05-07T16:48:02.983Z,38.73
2019-05-07T16:51:09.544Z,37.66
2019-05-07T16:54:18.325Z,37.91
2019-05-07T16:57:39.122Z,37.89
2019-05-07T17:00:52.869Z,38.12
2019-05-07T17:04:18.948Z,37.89
2019-05-07T17:07:27.475Z,37.42
2019-05-07T17:10:36.279Z,38.82
2019-05-07T17:13:44.914Z,39.41
2019-05-07T17:16:53.559Z,39.03
2019-05-07T17:20:02.947Z,39.48
2019-05-07T17:23:22.651Z,39.73
2019-05-07T17:26:31.433Z,40.40
2019-05-07T17:29:40.130Z,40.05
2019-05-07T17:32:58.985Z,39.59
2019-05-07T17:36:07.541Z,40.16
2019-05-07T17:39:16.300Z,40.60
2019-05-07T17:42:24.993Z,39.81
2019-05-07T17:45:33.647Z,40.28
2019-05-07T17:48:42.801Z,40.89
2019-05-07T17:51:52.611Z,41.01
2019-05-07T17:55:03.011Z,40.40
2019-05-07T17:58:12.880Z,40.15
2019-05-07T18:01:53.639Z,40.95
2019-05-07T18:05:04.213Z,41.21
2019-05-07T18:08:12.914Z,42.11
2019-05-07T18:11:24.175Z,42.37
2019-05-07T18:14:32.314Z,42.77
2019-05-07T18:17:46.973Z,41.46
2019-05-07T18:20:55.732Z,42.22
2019-05-07T18:24:16.811Z,43.02
2019-05-07T18:27:25.796Z,44.63
2019-05-07T18:30:34.495Z,44.61
2019-05-07T18:33:48.616Z,45.09
2019-05-07T18:36:57.151Z,46.67
2019-05-07T18:40:14.177Z,46.36
2019-05-07T18:43:23.020Z,46.45
2019-05-07T18:46:32.699Z,46.67
2019-05-07T18:49:42.903Z,47.42
2019-05-07T18:52:52.312Z,48.15
2019-05-07T18:56:01.700Z,47.83
2019-05-07T18:59:12.184Z,48.46
2019-05-07T19:02:22.564Z,48.58
2019-05-07T19:05:32.415Z,48.80
2019-05-07T19:08:42.265Z,49.27
2019-05-07T19:11:52.254Z,49.42
2019-05-07T19:15:12.614Z,50.18
2019-05-07T19:18:22.986Z,50.72
2019-05-07T19:21:42.371Z,51.10
2019-05-07T19:25:03.009Z,50.93
2019-05-07T19:28:28.349Z,50.85
2019-05-07T19:31:37.059Z,51.19
2019-05-07T19:34:45.724Z,51.60
2019-05-07T19:37:54.261Z,52.65
2019-05-07T19:41:02.910Z,53.95
2019-05-07T19:44:12.676Z,54.31
2019-05-07T19:47:23.321Z,54.48
2019-05-07T19:50:42.125Z,54.71
2019-05-07T19:53:52.577Z,54.54
2019-05-07T19:57:02.743Z,54.41
2019-05-07T20:00:12.872Z,55.14
2019-05-07T20:03:22.325Z,55.35
2019-05-07T20:06:42.898Z,55.26
2019-05-07T20:09:52.440Z,55.58
2019-05-07T20:13:03.067Z,55.80
2019-05-07T20:16:15.354Z,56.11
2019-05-07T20:19:24.115Z,55.67
2019-05-07T20:22:33.309Z,55.50
2019-05-07T20:25:42.160Z,55.64
2019-05-07T20:28:52.555Z,55.03
2019-05-07T20:32:01.230Z,55.13
2019-05-07T20:35:10.001Z,53.82
2019-05-07T20:38:18.774Z,53.28
2019-05-07T20:41:27.623Z,53.18
2019-05-07T20:44:36.302Z,52.97
2019-05-07T20:47:44.968Z,52.15
2019-05-07T20:50:53.620Z,52.18
2019-05-07T20:54:39.352Z,52.63
2019-05-07T20:57:50.985Z,52.16
2019-05-07T21:00:58.611Z,51.75
2019-05-07T21:04:07.255Z,52.32
2019-05-07T21:07:15.888Z,53.72
2019-05-07T21:10:24.687Z,50.78
2019-05-07T21:13:34.961Z,49.98
2019-05-07T21:16:43.802Z,49.88
2019-05-07T21:19:52.470Z,50.43
2019-05-07T21:23:02.691Z,50.10
2019-05-07T21:26:13.120Z,50.75
2019-05-07T21:29:21.830Z,50.38
2019-05-07T21:32:42.117Z,50.14
2019-05-07T21:35:52.281Z,50.96
2019-05-07T21:39:02.278Z,51.10
2019-05-07T21:42:13.848Z,50.66
2019-05-07T21:45:23.607Z,49.80
2019-05-07T21:48:32.754Z,49.87
2019-05-07T21:51:40.797Z,50.63
2019-05-07T21:55:02.366Z,50.36
2019-05-07T21:58:35.913Z,50.33
2019-05-07T22:01:46.777Z,50.66
2019-05-07T22:05:11.912Z,49.75
2019-05-07T22:08:21.918Z,50.24
2019-05-07T22:11:32.311Z,50.20
2019-05-07T22:14:41.136Z,49.67
2019-05-07T22:18:00.056Z,50.12
2019-05-07T22:21:08.691Z,50.72
2019-05-07T22:24:17.335Z,50.82
2019-05-07T22:27:25.968Z,50.88
2019-05-07T22:30:45.410Z,51.25
2019-05-07T22:34:25.154Z,51.19
2019-05-07T22:37:33.854Z,51.56
2019-05-07T22:40:43.417Z,51.62
2019-05-07T22:44:02.665Z,52.16
2019-05-07T22:47:22.673Z,53.10
2019-05-07T22:50:33.183Z,52.87
2019-05-07T22:53:43.357Z,53.17
2019-05-07T22:57:17.522Z,52.94
2019-05-07T23:00:32.239Z,53.39
2019-05-07T23:03:42.924Z,53.49
2019-05-07T23:06:52.838Z,54.35
2019-05-07T23:10:02.859Z,54.54
2019-05-07T23:13:13.029Z,55.04
2019-05-07T23:16:23.129Z,55.63
2019-05-07T23:19:32.721Z,56.40
2019-05-07T23:22:42.838Z,56.14
2019-05-07T23:25:52.389Z,56.51
2019-05-07T23:29:11.890Z,56.21
2019-05-07T23:32:32.984Z,56.63
2019-05-07T23:35:42.182Z,57.61
2019-05-07T23:38:52.052Z,58.63
2019-05-07T23:42:07.311Z,57.99
2019-05-07T23:45:16.818Z,57.68
2019-05-07T23:48:25.578Z,57.89
2019-05-07T23:51:34.222Z,57.78
2019-05-07T23:54:42.860Z,57.95
2019-05-07T23:57:52.501Z,57.63
